Time;durP1;ratioP1;P1;durP2;ratioP2;P2;SDS_P1;SDS_P2;PMS_P1;PMS_P2;Temp;Humidity;BMP_temperature;BMP_pressure;BME280_temperature;BME280_humidity;BME280_pressure;Samples;Min_cycle;Max_cycle;Signal;HPM_P1;HPM_P2
2023/01/11 00:02:20;;;;;;;6.57;4.03;;;;;;;-0.73;100.00;97329.31;5037678;28;20195;-69
2023/01/11 00:04:48;;;;;;;4.77;4.47;;;;;;;-0.66;100.00;97338.34;4998877;28;20863;-70
2023/01/11 00:07:15;;;;;;;5.20;4.03;;;;;;;-0.64;100.00;97326.03;5026876;28;20209;-71
2023/01/11 00:09:46;;;;;;;4.93;4.50;;;;;;;-0.61;100.00;97335.41;5028036;28;20234;-71
2023/01/11 00:12:14;;;;;;;6.57;5.03;;;;;;;-0.60;100.00;97342.28;5043349;28;20215;-71
2023/01/11 00:14:42;;;;;;;4.63;3.83;;;;;;;-0.54;100.00;97330.59;5036359;28;20394;-70
2023/01/11 00:17:09;;;;;;;4.17;3.87;;;;;;;-0.53;100.00;97332.28;5027442;28;20404;-71
2023/01/11 00:19:37;;;;;;;5.40;4.57;;;;;;;-0.62;100.00;97307.72;5002619;28;20234;-70
2023/01/11 00:22:05;;;;;;;5.60;4.17;;;;;;;-0.55;100.00;97321.13;5022717;28;20211;-72
2023/01/11 00:24:33;;;;;;;4.40;4.03;;;;;;;-0.54;100.00;97325.41;5024429;28;20211;-68
2023/01/11 00:27:02;;;;;;;3.77;3.47;;;;;;;-0.50;100.00;97319.03;5037626;28;20207;-70
2023/01/11 00:29:29;;;;;;;4.40;4.10;;;;;;;-0.49;100.00;97318.09;5037030;28;20257;-71
2023/01/11 00:31:57;;;;;;;4.20;3.90;;;;;;;-0.48;100.00;97309.34;5043044;28;20242;-71
2023/01/11 00:34:25;;;;;;;4.43;4.13;;;;;;;-0.51;100.00;97307.78;4999481;28;20233;-71
2023/01/11 00:36:53;;;;;;;4.33;3.97;;;;;;;-0.51;100.00;97305.16;5017479;28;20913;-69
2023/01/11 00:39:20;;;;;;;5.50;4.30;;;;;;;-0.49;100.00;97310.28;5029558;28;20228;-71
2023/01/11 00:50:06;;;;;;;4.17;3.80;;;;;;;-0.41;100.00;97292.31;4994080;28;20250;-69
2023/01/11 00:52:34;;;;;;;6.37;4.20;;;;;;;-0.32;100.00;97299.44;5023171;28;20315;-73
2023/01/11 00:55:02;;;;;;;4.23;3.93;;;;;;;-0.28;100.00;97292.25;5029503;28;20216;-71
2023/01/11 00:57:29;;;;;;;4.37;4.00;;;;;;;-0.29;100.00;97293.19;5041723;28;21036;-72
2023/01/11 00:59:59;;;;;;;4.83;3.93;;;;;;;-0.33;100.00;97295.19;5044191;28;22560;-70
2023/01/11 01:02:27;;;;;;;6.03;4.90;;;;;;;-0.43;100.00;97275.97;5041266;28;20291;-72
2023/01/11 01:04:55;;;;;;;4.83;4.23;;;;;;;-0.35;100.00;97284.06;4995300;28;20662;-70
2023/01/11 01:07:22;;;;;;;6.00;4.10;;;;;;;-0.33;100.00;97281.34;5015501;28;21073;-71
2023/01/11 01:09:50;;;;;;;5.50;4.10;;;;;;;-0.36;100.00;97271.16;5024335;28;20604;-70
2023/01/11 01:15:01;;;;;;;4.40;4.00;;;;;;;-0.24;100.00;97285.03;5040362;28;20439;-71
2023/01/11 01:17:29;;;;;;;5.10;4.07;;;;;;;-0.18;100.00;97280.19;5039252;28;20315;-70
2023/01/11 01:19:56;;;;;;;5.07;3.90;;;;;;;-0.13;100.00;97271.22;5002672;28;20706;-72
2023/01/11 01:22:24;;;;;;;4.50;3.57;;;;;;;-0.10;100.00;97273.59;5033332;28;20456;-70
2023/01/11 01:24:52;;;;;;;5.70;4.13;;;;;;;-0.09;100.00;97268.28;4986188;28;20250;-70
2023/01/11 01:27:20;;;;;;;3.60;3.40;;;;;;;-0.13;100.00;97258.19;5043284;28;20302;-71
2023/01/11 01:29:47;;;;;;;7.13;4.63;;;;;;;-0.05;100.00;97263.66;5043192;28;20309;-69
2023/01/11 01:32:16;;;;;;;4.67;3.90;;;;;;;-0.06;100.00;97262.84;5045831;28;20597;-70
2023/01/11 01:34:44;;;;;;;5.70;3.97;;;;;;;-0.10;100.00;97258.81;5044678;28;20206;-71
2023/01/11 01:37:13;;;;;;;4.50;4.07;;;;;;;-0.15;100.00;97253.94;5040283;28;20233;-71
2023/01/11 01:39:41;;;;;;;5.40;4.00;;;;;;;-0.23;100.00;97248.47;5043981;28;20245;-69
2023/01/11 01:42:13;;;;;;;4.57;3.40;;;;;;;-0.17;100.00;97257.59;4999182;28;20214;-69
2023/01/11 01:44:56;;;;;;;4.33;3.93;;;;;;;-0.17;100.00;97244.59;5044430;28;20514;-71
2023/01/11 01:47:27;;;;;;;4.23;3.83;;;;;;;-0.19;100.00;97251.66;5044327;28;20209;-72
2023/01/11 01:49:56;;;;;;;4.23;3.90;;;;;;;-0.19;100.00;97254.25;5040417;28;20226;-70
2023/01/11 01:52:28;;;;;;;5.33;3.67;;;;;;;-0.23;100.00;97252.84;5033692;28;20424;-72
2023/01/11 01:54:57;;;;;;;4.97;4.17;;;;;;;-0.28;100.00;97254.94;5027210;28;20202;-70
2023/01/11 01:57:27;;;;;;;4.10;3.70;;;;;;;-0.36;100.00;97255.53;5021917;28;20456;-71
2023/01/11 01:59:58;;;;;;;4.40;4.00;;;;;;;-0.40;100.00;97248.88;5044508;28;20782;-70
2023/01/11 02:02:27;;;;;;;5.93;3.90;;;;;;;-0.42;100.00;97246.41;5046811;28;20207;-72
2023/01/11 02:04:56;;;;;;;4.90;3.80;;;;;;;-0.36;100.00;97240.72;5022998;28;20629;-70
2023/01/11 02:07:27;;;;;;;4.77;3.53;;;;;;;-0.30;100.00;97235.06;5039696;28;20608;-71
2023/01/11 02:09:57;;;;;;;5.43;3.60;;;;;;;-0.23;100.00;97229.41;5041655;28;20516;-69
2023/01/11 02:12:29;;;;;;;4.63;3.50;;;;;;;-0.19;100.00;97231.66;5002732;28;20229;-70
2023/01/11 02:14:59;;;;;;;5.00;3.70;;;;;;;-0.10;100.00;97242.34;5045235;28;20427;-70
2023/01/11 02:17:28;;;;;;;5.70;3.60;;;;;;;-0.03;100.00;97239.16;5031709;28;21311;-70
2023/01/11 02:20:05;;;;;;;6.00;3.60;;;;;;;0.03;100.00;97230.06;5034707;28;20357;-71
2023/01/11 02:23:10;;;;;;;3.53;3.30;;;;;;;0.09;100.00;97228.75;5030142;28;20336;-70
2023/01/11 02:25:59;;;;;;;3.30;3.00;;;;;;;0.13;100.00;97238.81;5000186;28;20227;-68
2023/01/11 02:28:31;;;;;;;4.40;4.00;;;;;;;0.11;100.00;97225.09;5043705;28;20207;-70
2023/01/11 02:31:05;;;;;;;3.97;3.60;;;;;;;0.16;100.00;97231.72;5041639;28;20397;-70
2023/01/11 02:33:39;;;;;;;5.20;3.37;;;;;;;0.12;100.00;97213.72;5031037;28;20206;-70
2023/01/11 02:36:13;;;;;;;3.53;3.07;;;;;;;0.06;100.00;97203.78;5036783;28;20662;-71
2023/01/11 02:38:43;;;;;;;3.27;3.00;;;;;;;0.12;100.00;97205.06;5025180;28;20551;-70
2023/01/11 02:41:18;;;;;;;6.30;3.37;;;;;;;0.12;100.00;97197.25;5033594;28;20202;-72
2023/01/11 02:46:42;;;;;;;8.77;3.30;;;;;;;0.18;100.00;97204.59;5031508;28;20226;-70
2023/01/11 02:49:15;;;;;;;3.93;3.53;;;;;;;0.14;100.00;97196.19;5038695;28;20779;-71
2023/01/11 02:51:46;;;;;;;4.87;3.30;;;;;;;0.15;100.00;97197.00;5029632;28;20424;-70
2023/01/11 02:54:17;;;;;;;4.27;3.87;;;;;;;0.12;100.00;97194.63;5043215;28;20211;-71
2023/01/11 02:56:47;;;;;;;3.40;3.20;;;;;;;0.16;100.00;97188.25;5042647;28;20549;-70
2023/01/11 02:59:18;;;;;;;3.93;3.63;;;;;;;0.20;100.00;97188.84;5002098;28;20225;-71
2023/01/11 03:01:47;;;;;;;4.03;3.63;;;;;;;0.24;100.00;97191.09;5018273;28;20409;-71
2023/01/11 03:04:23;;;;;;;5.93;4.17;;;;;;;0.26;100.00;97189.22;5032556;28;20568;-70
2023/01/11 03:06:54;;;;;;;2.93;2.63;;;;;;;0.30;100.00;97186.34;5039322;28;20308;-72
2023/01/11 03:09:27;;;;;;;4.50;4.10;;;;;;;0.27;100.00;97193.47;5044148;28;20233;-70
2023/01/11 03:15:02;;;;;;;3.10;2.90;;;;;;;0.18;100.00;97183.72;4998124;28;20443;-72
2023/01/11 03:17:41;;;;;;;4.03;3.63;;;;;;;0.13;100.00;97183.25;5023677;28;20210;-70
2023/01/11 03:20:14;;;;;;;5.80;4.00;;;;;;;0.08;100.00;97188.84;5032756;28;20222;-72
2023/01/11 03:22:52;;;;;;;4.10;3.80;;;;;;;0.04;100.00;97183.97;5040350;28;20811;-71
2023/01/11 03:25:23;;;;;;;3.87;3.57;;;;;;;0.03;100.00;97183.16;5047758;28;20207;-70
2023/01/11 03:27:55;;;;;;;4.83;3.90;;;;;;;0.05;100.00;97191.69;5045951;28;20698;-71
2023/01/11 03:30:29;;;;;;;3.73;3.33;;;;;;;0.07;100.00;97194.16;5007704;28;20237;-71
2023/01/11 03:33:03;;;;;;;4.93;3.47;;;;;;;0.05;100.00;97191.69;4998972;28;20744;-70
2023/01/11 03:35:37;;;;;;;4.33;4.00;;;;;;;-0.02;100.00;97191.31;5039642;28;20297;-72
2023/01/11 03:38:07;;;;;;;3.80;3.50;;;;;;;-0.03;100.00;97188.81;5032547;28;20309;-70
2023/01/11 03:40:38;;;;;;;4.13;3.57;;;;;;;-0.10;100.00;97193.69;5039847;28;20434;-71
2023/01/11 03:43:13;;;;;;;3.90;3.53;;;;;;;-0.09;100.00;97191.91;5043813;28;20654;-69
2023/01/11 03:45:46;;;;;;;4.33;3.93;;;;;;;-0.12;100.00;97194.75;5042849;28;20448;-72
2023/01/11 03:48:17;;;;;;;4.63;3.97;;;;;;;-0.19;100.00;97181.34;5005593;28;20352;-70
2023/01/11 03:50:47;;;;;;;5.77;4.40;;;;;;;-0.19;100.00;97181.34;5038080;28;20340;-73
2023/01/11 03:53:17;;;;;;;5.50;4.50;;;;;;;-0.25;100.00;97182.66;5039098;28;20195;-72
2023/01/11 03:55:46;;;;;;;5.00;4.70;;;;;;;-0.28;100.00;97174.22;5033061;28;20326;-70
2023/01/11 03:58:14;;;;;;;4.67;4.03;;;;;;;-0.31;100.00;97172.72;5018145;28;20597;-73
2023/01/11 04:00:43;;;;;;;5.17;4.47;;;;;;;-0.34;100.00;97165.94;5029122;28;20229;-75
2023/01/11 04:03:13;;;;;;;6.33;5.80;;;;;;;-0.31;100.00;97164.91;4987740;28;20322;-72
2023/01/11 04:05:43;;;;;;;5.50;5.00;;;;;;;-0.33;100.00;97167.59;5044059;28;20402;-72
2023/01/11 04:08:11;;;;;;;5.20;4.80;;;;;;;-0.28;100.00;97185.50;5042894;28;20709;-73
2023/01/11 04:10:39;;;;;;;5.17;4.60;;;;;;;-0.26;100.00;97180.16;5014530;28;20322;-71
2023/01/11 04:13:06;;;;;;;5.30;4.80;;;;;;;-0.26;100.00;97178.41;5046114;28;20741;-74
2023/01/11 04:15:34;;;;;;;7.00;5.43;;;;;;;-0.24;100.00;97175.66;5042250;28;20867;-72
2023/01/11 04:18:04;;;;;;;5.60;5.20;;;;;;;-0.22;100.00;97178.97;5000919;28;20219;-72
2023/01/11 04:20:32;;;;;;;5.60;5.20;;;;;;;-0.21;100.00;97176.25;5043242;28;20226;-71
2023/01/11 04:23:00;;;;;;;6.60;5.07;;;;;;;-0.17;100.00;97176.88;5039423;28;20209;-72
2023/01/11 04:25:28;;;;;;;5.80;5.30;;;;;;;-0.19;100.00;97173.53;5043885;28;20199;-70
2023/01/11 04:27:55;;;;;;;6.40;5.37;;;;;;;-0.18;100.00;97170.00;5044952;28;20501;-71
2023/01/11 04:30:23;;;;;;;6.00;5.40;;;;;;;-0.17;100.00;97164.66;5046850;28;20230;-71
2023/01/11 04:32:51;;;;;;;6.00;5.50;;;;;;;-0.17;100.00;97164.66;4987227;28;21046;-70
2023/01/11 04:35:20;;;;;;;6.13;5.53;;;;;;;-0.07;100.00;97158.75;5045720;28;20282;-71
2023/01/11 04:37:49;;;;;;;6.80;5.60;;;;;;;-0.12;100.00;97161.72;5035521;28;20350;-70
2023/01/11 04:40:17;;;;;;;6.00;5.50;;;;;;;-0.16;100.00;97161.13;5039339;28;20223;-71
2023/01/11 04:42:45;;;;;;;6.77;6.10;;;;;;;-0.15;100.00;97154.16;5029604;28;20278;-70
2023/01/11 04:45:12;;;;;;;9.97;6.10;;;;;;;-0.19;100.00;97152.69;5036612;28;20199;-71
2023/01/11 04:47:40;;;;;;;7.20;6.47;;;;;;;-0.09;100.00;97161.47;5028731;28;20406;-70
2023/01/11 04:50:10;;;;;;;6.63;5.97;;;;;;;-0.07;100.00;97172.63;4999432;28;20238;-71
2023/01/11 04:52:40;;;;;;;6.23;5.73;;;;;;;-0.03;100.00;97163.63;5039864;28;20693;-69
2023/01/11 04:55:08;;;;;;;6.27;5.70;;;;;;;-0.04;100.00;97167.16;5044422;28;20289;-71
2023/01/11 04:57:36;;;;;;;7.93;6.47;;;;;;;-0.02;100.00;97160.06;5042688;28;20230;-69
2023/01/11 05:00:09;;;;;;;6.23;5.73;;;;;;;-0.01;100.00;97160.88;5038849;28;20234;-72
2023/01/11 05:02:37;;;;;;;6.57;5.90;;;;;;;0.01;100.00;97161.63;5029423;28;20206;-70
2023/01/11 05:05:05;;;;;;;5.80;5.40;;;;;;;0.04;100.00;97145.75;4991521;28;20242;-71
2023/01/11 05:07:33;;;;;;;6.80;6.27;;;;;;;0.08;100.00;97130.69;5046402;28;20210;-69
2023/01/11 05:10:02;;;;;;;7.20;6.70;;;;;;;0.10;100.00;97129.63;5048395;28;20226;-70
2023/01/11 05:12:29;;;;;;;6.67;5.93;;;;;;;0.07;100.00;97122.06;5035411;28;20226;-71
2023/01/11 05:14:58;;;;;;;7.00;6.30;;;;;;;0.11;100.00;97133.91;5037051;28;20222;-72
2023/01/11 05:17:25;;;;;;;6.47;5.97;;;;;;;0.07;100.00;97127.28;5035300;28;20231;-70
2023/01/11 05:19:53;;;;;;;7.27;5.97;;;;;;;0.19;100.00;97140.28;5029466;28;20502;-71
2023/01/11 05:22:20;;;;;;;6.20;5.70;;;;;;;0.22;100.00;97140.03;4997386;28;20307;-70
2023/01/11 05:24:48;;;;;;;6.73;6.10;;;;;;;0.20;100.00;97145.38;5044455;28;20199;-71
2023/01/11 05:27:17;;;;;;;6.30;5.53;;;;;;;0.21;100.00;97139.22;5045948;28;20290;-70
2023/01/11 05:29:44;;;;;;;7.30;5.50;;;;;;;0.23;100.00;97134.72;5037581;28;20214;-71
2023/01/11 05:32:13;;;;;;;7.03;6.07;;;;;;;0.24;100.00;97148.56;5038335;28;20204;-72
2023/01/11 05:34:40;;;;;;;7.27;6.50;;;;;;;0.25;100.00;97135.44;5032460;28;20203;-70
2023/01/11 05:37:08;;;;;;;5.97;5.40;;;;;;;0.25;100.00;97137.19;4997313;28;20218;-71
2023/01/11 05:39:35;;;;;;;6.80;6.20;;;;;;;0.25;100.00;97138.03;4985249;28;20894;-74
2023/01/11 05:42:03;;;;;;;6.57;6.07;;;;;;;0.14;100.00;97120.63;5022558;28;20757;-72
2023/01/11 05:47:17;;;;;;;6.93;6.33;;;;;;;0.31;100.00;97138.50;5020575;28;20719;-71
2023/01/11 05:49:45;;;;;;;6.87;6.23;;;;;;;0.31;100.00;97134.09;5036176;28;20219;-72
2023/01/11 05:52:12;;;;;;;6.77;6.17;;;;;;;0.28;100.00;97129.13;5031979;28;20323;-70
2023/01/11 05:54:40;;;;;;;6.47;6.00;;;;;;;0.30;100.00;97132.44;5008755;28;20198;-69
2023/01/11 05:57:10;;;;;;;7.17;6.43;;;;;;;0.30;100.00;97137.66;5040886;28;20235;-71
2023/01/11 05:59:39;;;;;;;6.93;6.23;;;;;;;0.29;100.00;97133.38;5034397;28;20233;-71
2023/01/11 06:02:06;;;;;;;7.30;6.80;;;;;;;0.29;100.00;97130.78;5018515;28;20584;-71
2023/01/11 06:04:34;;;;;;;7.23;6.63;;;;;;;0.26;100.00;97131.88;5040286;28;20725;-70
2023/01/11 06:07:02;;;;;;;6.67;6.17;;;;;;;0.27;100.00;97120.50;5040926;28;20218;-73
2023/01/11 06:09:30;;;;;;;7.50;6.90;;;;;;;0.26;100.00;97123.22;5018719;28;20782;-70
2023/01/11 06:11:57;;;;;;;7.47;6.77;;;;;;;0.26;100.00;97115.38;5014533;28;20954;-71
2023/01/11 06:14:25;;;;;;;7.40;6.70;;;;;;;0.28;100.00;97111.72;5029454;28;20213;-70
2023/01/11 06:16:55;;;;;;;7.80;7.20;;;;;;;0.35;100.00;97112.06;5043692;28;20208;-71
2023/01/11 06:19:23;;;;;;;7.60;6.90;;;;;;;0.34;100.00;97110.41;5020958;28;20219;-73
2023/01/11 06:21:50;;;;;;;7.97;7.27;;;;;;;0.35;100.00;97099.03;5029363;28;20223;-71
2023/01/11 06:24:18;;;;;;;7.10;6.53;;;;;;;0.39;100.00;97107.44;5034993;28;20208;-70
2023/01/11 06:26:46;;;;;;;7.57;6.97;;;;;;;0.40;100.00;97111.69;5003414;28;20206;-70
2023/01/11 06:29:14;;;;;;;6.97;6.40;;;;;;;0.41;100.00;97100.31;5035396;28;20713;-70
2023/01/11 06:31:41;;;;;;;7.60;7.00;;;;;;;0.46;100.00;97116.41;5035514;28;20206;-71
2023/01/11 06:34:10;;;;;;;7.20;6.60;;;;;;;0.43;100.00;97106.25;5019001;28;20206;-69
2023/01/11 06:36:38;;;;;;;8.07;7.40;;;;;;;0.41;100.00;97102.94;5036271;28;20208;-71
2023/01/11 06:39:06;;;;;;;7.60;6.90;;;;;;;0.41;100.00;97103.78;5028332;28;20230;-72
2023/01/11 06:41:33;;;;;;;7.60;7.10;;;;;;;0.38;100.00;97085.78;4985981;28;20422;-72
2023/01/11 06:44:01;;;;;;;7.67;6.90;;;;;;;0.40;100.00;97096.91;5036229;28;20219;-69
2023/01/11 06:46:28;;;;;;;10.60;9.77;;;;;;;0.31;100.00;97075.94;5030527;28;20757;-71
2023/01/11 06:48:56;;;;;;;9.90;9.00;;;;;;;0.29;100.00;97073.44;5012554;28;20232;-71
2023/01/11 06:51:25;;;;;;;8.30;7.20;;;;;;;0.37;100.00;97091.91;5035976;28;20628;-70
2023/01/11 06:53:52;;;;;;;7.83;7.17;;;;;;;0.40;100.00;97089.06;5038033;28;20513;-70
2023/01/11 06:56:20;;;;;;;8.10;7.50;;;;;;;0.40;100.00;97091.69;5016262;28;20203;-70
2023/01/11 06:58:48;;;;;;;8.13;7.53;;;;;;;0.37;100.00;97096.31;5036693;28;20439;-69
2023/01/11 07:01:16;;;;;;;8.07;7.47;;;;;;;0.35;100.00;97100.81;5043837;28;20304;-71
2023/01/11 07:03:44;;;;;;;8.60;7.80;;;;;;;0.41;100.00;97108.13;5043991;28;20491;-71
2023/01/11 07:06:12;;;;;;;8.07;7.47;;;;;;;0.46;100.00;97102.56;5022844;28;20616;-70
2023/01/11 07:08:42;;;;;;;8.83;8.03;;;;;;;0.43;100.00;97108.84;5038304;28;20229;-72
2023/01/11 07:11:09;;;;;;;8.93;8.13;;;;;;;0.49;100.00;97105.75;5045532;28;20643;-70
2023/01/11 07:13:37;;;;;;;10.60;9.10;;;;;;;0.42;100.00;97081.13;5005291;28;20746;-71
2023/01/11 07:16:05;;;;;;;8.83;8.03;;;;;;;0.51;100.00;97109.06;5028187;28;20203;-71
2023/01/11 07:18:32;;;;;;;10.07;8.27;;;;;;;0.52;100.00;97105.50;5033058;28;20407;-72
2023/01/11 07:21:01;;;;;;;10.07;9.10;;;;;;;0.55;100.00;97110.47;5024189;28;20223;-70
2023/01/11 07:23:28;;;;;;;10.07;9.20;;;;;;;0.55;100.00;97101.81;5029967;28;20394;-71
2023/01/11 07:25:57;;;;;;;9.77;8.93;;;;;;;0.57;100.00;97103.38;5037092;28;20206;-72
2023/01/11 07:28:27;;;;;;;9.27;8.57;;;;;;;0.57;100.00;97099.94;4998609;28;20202;-70
2023/01/11 07:30:54;;;;;;;11.03;10.10;;;;;;;0.60;100.00;97096.25;5045039;28;20204;-72
2023/01/11 07:33:26;;;;;;;9.97;9.17;;;;;;;0.56;100.00;97093.06;5040622;28;20200;-70
2023/01/11 07:35:54;;;;;;;10.73;9.83;;;;;;;0.60;100.00;97096.25;5022976;28;20299;-71
2023/01/11 07:38:22;;;;;;;9.77;8.40;;;;;;;0.69;100.00;97095.50;5040776;28;21128;-70
2023/01/11 07:40:49;;;;;;;9.23;8.53;;;;;;;0.76;100.00;97098.44;5049821;28;20230;-72
2023/01/11 07:43:20;;;;;;;9.60;8.70;;;;;;;0.76;100.00;97099.28;5021587;28;20256;-69
2023/01/11 07:45:49;;;;;;;9.90;9.00;;;;;;;0.79;100.00;97087.78;5034720;28;20210;-74
2023/01/11 07:48:19;;;;;;;10.23;9.37;;;;;;;0.81;100.00;97099.72;4987603;28;20408;-71
2023/01/11 07:50:48;;;;;;;11.20;8.83;;;;;;;0.85;100.00;97100.31;5033427;28;20789;-70
2023/01/11 07:53:17;;;;;;;9.87;9.07;;;;;;;0.88;100.00;97104.44;5038525;28;20206;-73
2023/01/11 07:55:45;;;;;;;9.40;8.53;;;;;;;0.95;100.00;97108.22;5045714;28;20199;-72
2023/01/11 07:58:14;;;;;;;9.87;8.97;;;;;;;0.98;100.00;97111.41;5040049;28;20528;-71
2023/01/11 08:00:44;;;;;;;8.77;8.07;;;;;;;1.00;100.00;97114.69;5045585;28;20725;-72
2023/01/11 08:03:12;;;;;;;14.43;12.73;;;;;;;1.03;100.00;97111.03;4986496;28;20594;-70
2023/01/11 08:05:40;;;;;;;12.27;11.07;;;;;;;1.00;100.00;97101.66;5042022;28;20199;-72
2023/01/11 08:08:08;;;;;;;9.33;8.47;;;;;;;1.02;100.00;97093.72;5031821;28;20767;-71
2023/01/11 08:10:35;;;;;;;9.53;8.63;;;;;;;1.10;100.00;97099.13;5035881;28;20223;-72
2023/01/11 08:15:49;;;;;;;9.03;8.33;;;;;;;1.30;100.00;97084.41;5041126;28;20403;-70
2023/01/11 08:18:18;;;;;;;8.90;8.10;;;;;;;1.30;100.00;97080.97;4977852;28;22284;-71
2023/01/11 08:20:47;;;;;;;9.17;8.47;;;;;;;1.27;100.00;97082.06;5036153;28;20761;-70
2023/01/11 08:23:15;;;;;;;8.93;8.20;;;;;;;1.36;100.00;97088.31;5022340;28;20438;-71
2023/01/11 08:25:42;;;;;;;9.00;8.20;;;;;;;1.26;100.00;97084.78;5046362;28;20202;-72
2023/01/11 08:28:10;;;;;;;8.27;7.63;;;;;;;1.11;100.00;97068.63;5030402;28;20434;-71
2023/01/11 08:30:38;;;;;;;8.80;8.10;;;;;;;1.24;100.00;97078.88;5030497;28;20277;-71
2023/01/11 08:33:07;;;;;;;8.03;7.40;;;;;;;1.15;100.00;97072.66;5010649;28;20209;-71
2023/01/11 08:35:38;;;;;;;9.97;8.87;;;;;;;1.13;100.00;97071.94;5001307;28;20230;-73
2023/01/11 08:38:06;;;;;;;8.87;8.17;;;;;;;1.15;100.00;97065.66;5033950;28;20239;-71
2023/01/11 08:40:33;;;;;;;10.77;8.80;;;;;;;1.17;100.00;97059.47;5036433;28;20407;-72
2023/01/11 08:43:01;;;;;;;8.63;8.00;;;;;;;1.19;100.00;97065.38;5037810;28;20326;-71
2023/01/11 08:45:29;;;;;;;9.03;8.33;;;;;;;1.24;100.00;97056.22;5040063;28;20467;-71
2023/01/11 08:47:59;;;;;;;9.30;8.57;;;;;;;1.28;100.00;97054.16;5022294;28;20496;-69
2023/01/11 08:50:27;;;;;;;13.50;12.23;;;;;;;1.34;100.00;97053.69;5001229;28;20251;-70
2023/01/11 08:52:55;;;;;;;9.83;8.93;;;;;;;1.39;100.00;97053.28;5040959;28;20208;-68
2023/01/11 08:55:23;;;;;;;9.67;8.87;;;;;;;1.47;100.00;97047.41;5034324;28;20245;-70
2023/01/11 08:57:50;;;;;;;9.90;9.00;;;;;;;1.39;100.00;97027.16;5044909;28;20203;-70
2023/01/11 09:00:19;;;;;;;9.30;8.33;;;;;;;1.52;100.00;97037.41;5029942;28;20433;-71
2023/01/11 09:02:47;;;;;;;9.20;8.40;;;;;;;1.51;100.00;97025.31;5042441;28;20302;-70
2023/01/11 09:05:15;;;;;;;9.43;8.50;;;;;;;1.56;100.00;97037.03;5019710;28;20702;-70
2023/01/11 09:07:46;;;;;;;8.17;7.47;;;;;;;1.73;100.00;97051.25;4995969;28;20211;-69
2023/01/11 09:10:13;;;;;;;8.83;8.03;;;;;;;1.83;100.00;97053.06;5036020;28;20219;-72
2023/01/11 09:12:41;;;;;;;7.60;7.00;;;;;;;1.89;100.00;97049.91;5032525;28;20207;-73
2023/01/11 09:15:09;;;;;;;8.23;7.57;;;;;;;1.92;100.00;97054.06;5028882;28;20203;-71
2023/01/11 09:17:37;;;;;;;7.77;7.07;;;;;;;1.92;100.00;97052.25;5041489;28;20866;-71
2023/01/11 09:20:05;;;;;;;8.10;7.50;;;;;;;2.10;100.00;97051.66;5010447;28;20343;-71
2023/01/11 09:22:33;;;;;;;7.13;6.63;;;;;;;2.18;100.00;97049.19;4992457;28;20223;-71
2023/01/11 09:25:02;;;;;;;7.80;7.20;;;;;;;2.10;100.00;97046.41;5038000;28;20241;-69
2023/01/11 09:27:30;;;;;;;6.60;6.10;;;;;;;2.17;100.00;97045.72;5040959;28;20691;-71
2023/01/11 09:29:57;;;;;;;6.70;6.20;;;;;;;2.22;100.00;97047.09;5033839;28;20249;-70
2023/01/11 09:32:25;;;;;;;7.27;6.67;;;;;;;2.29;100.00;97054.28;5033519;28;20210;-72
2023/01/11 09:34:56;;;;;;;6.80;6.33;;;;;;;2.26;100.00;97059.78;5019654;28;20690;-69
2023/01/11 09:37:24;;;;;;;9.00;8.30;;;;;;;2.30;100.00;97061.16;5029570;28;20199;-70
2023/01/11 09:39:51;;;;;;;7.00;6.50;;;;;;;2.27;100.00;97050.97;5003400;28;20264;-71
2023/01/11 09:42:31;;;;;;;7.40;6.80;;;;;;;2.41;100.00;97056.78;5038019;28;20246;-72
2023/01/11 09:45:05;;;;;;;6.67;6.17;;;;;;;2.42;100.00;97051.41;5046868;28;20511;-70
2023/01/11 09:47:37;;;;;;;7.13;6.43;;;;;;;2.43;100.00;97053.06;5033145;28;20512;-71
2023/01/11 09:50:10;;;;;;;6.97;6.47;;;;;;;2.42;100.00;97046.19;5008225;28;20241;-71
2023/01/11 09:52:41;;;;;;;6.60;6.10;;;;;;;2.43;100.00;97037.38;5036901;28;20231;-71
2023/01/11 09:55:15;;;;;;;6.80;6.20;;;;;;;2.51;100.00;97035.88;4946352;28;20314;-70
2023/01/11 09:58:21;;;;;;;7.03;6.47;;;;;;;2.54;100.00;97022.50;5019356;28;20214;-72
2023/01/11 10:00:53;;;;;;;6.90;6.40;;;;;;;2.55;100.00;97027.63;5012546;28;20774;-71
2023/01/11 10:04:02;;;;;;;7.20;6.63;;;;;;;2.59;100.00;97031.63;5041845;28;20272;-71
2023/01/11 10:06:33;;;;;;;7.17;5.90;;;;;;;2.61;100.00;97021.00;5035485;28;20208;-70
2023/01/11 10:09:16;;;;;;;6.13;5.73;;;;;;;2.66;100.00;97017.97;5039240;28;20227;-72
2023/01/11 10:12:12;;;;;;;6.17;5.60;;;;;;;2.67;100.00;97015.25;5038485;28;20682;-72
2023/01/11 10:15:11;;;;;;;6.77;6.27;;;;;;;2.70;100.00;97012.34;5030387;28;20738;-71
2023/01/11 10:18:12;;;;;;;6.87;6.03;;;;;;;2.74;100.00;97012.88;5037050;28;20206;-73
2023/01/11 10:21:08;;;;;;;10.17;9.20;;;;;;;3.03;100.00;97014.63;5044564;28;20628;-70
2023/01/11 10:23:45;;;;;;;7.00;6.50;;;;;;;3.16;100.00;97004.69;5037520;28;20203;-70
2023/01/11 10:26:25;;;;;;;6.30;5.70;;;;;;;3.09;100.00;97002.78;4997172;28;20218;-70
2023/01/11 10:29:12;;;;;;;6.63;6.13;;;;;;;3.01;100.00;96995.63;5042655;28;20527;-69
2023/01/11 10:31:58;;;;;;;6.70;6.20;;;;;;;3.01;100.00;96988.59;5033737;28;20210;-69
2023/01/11 10:34:41;;;;;;;6.53;6.03;;;;;;;3.12;100.00;96976.31;5035510;28;20217;-70
2023/01/11 10:37:26;;;;;;;6.87;6.27;;;;;;;3.32;100.00;96979.72;5040347;28;20207;-71
2023/01/11 10:40:18;;;;;;;6.50;6.10;;;;;;;3.32;100.00;96977.91;5036143;28;20523;-71
2023/01/11 10:42:51;;;;;;;6.03;5.63;;;;;;;3.40;100.00;96979.81;4993846;28;20417;-72
2023/01/11 10:45:22;;;;;;;5.80;5.43;;;;;;;3.52;100.00;96977.84;5029367;28;20670;-70
2023/01/11 10:47:55;;;;;;;5.77;5.33;;;;;;;3.73;100.00;96972.38;5033788;28;20785;-71
2023/01/11 10:50:26;;;;;;;6.73;6.13;;;;;;;3.67;100.00;96961.63;5030708;28;20782;-70
2023/01/11 10:52:57;;;;;;;5.23;4.93;;;;;;;3.69;100.00;96963.16;5023759;28;20207;-71
2023/01/11 10:55:31;;;;;;;5.47;5.07;;;;;;;3.66;100.00;96945.09;5039391;28;20207;-70
2023/01/11 10:58:08;;;;;;;5.93;5.57;;;;;;;3.91;100.00;96954.06;5004083;28;21279;-73
2023/01/11 11:00:41;;;;;;;5.27;4.87;;;;;;;3.98;100.00;96956.06;5029967;28;20228;-69
2023/01/11 11:03:36;;;;;;;6.37;5.53;;;;;;;3.81;100.00;96945.44;5042881;28;20272;-70
2023/01/11 11:06:08;;;;;;;5.13;4.73;;;;;;;3.83;100.00;96947.88;5045848;28;20585;-70
2023/01/11 11:08:41;;;;;;;5.30;4.80;;;;;;;3.73;100.00;96946.16;5013592;28;20211;-70
2023/01/11 11:11:13;;;;;;;5.53;5.03;;;;;;;3.77;100.00;96928.31;5035406;28;20207;-71
2023/01/11 11:13:49;;;;;;;5.13;4.70;;;;;;;3.74;100.00;96942.56;4988487;28;20442;-70
2023/01/11 11:16:27;;;;;;;5.20;4.80;;;;;;;3.54;100.00;96941.00;5025547;28;20207;-71
2023/01/11 11:18:58;;;;;;;4.73;4.43;;;;;;;3.58;100.00;96937.13;5036085;28;20219;-72
2023/01/11 11:21:28;;;;;;;5.33;4.93;;;;;;;3.37;100.00;96927.72;5041774;28;20202;-70
2023/01/11 11:23:58;;;;;;;5.10;4.73;;;;;;;3.29;100.00;96925.81;5027965;28;20424;-72
2023/01/11 11:26:40;;;;;;;5.20;4.80;;;;;;;3.20;100.00;96918.84;5028140;28;20230;-70
2023/01/11 11:29:10;;;;;;;6.67;6.17;;;;;;;3.39;100.00;96915.31;5034365;28;20223;-71
2023/01/11 11:31:42;;;;;;;5.53;5.23;;;;;;;3.61;100.00;96906.22;5023950;28;20212;-70
2023/01/11 11:34:15;;;;;;;5.80;5.30;;;;;;;3.78;100.00;96909.00;5041832;28;20262;-71
2023/01/11 11:36:43;;;;;;;5.17;4.87;;;;;;;3.89;100.00;96907.97;5028400;28;20203;-71
2023/01/11 11:39:19;;;;;;;4.90;4.60;;;;;;;4.00;100.00;96894.69;5029043;28;20771;-71
2023/01/11 11:41:49;;;;;;;4.57;4.27;;;;;;;4.00;100.00;96886.81;4989704;28;20430;-69
2023/01/11 11:44:19;;;;;;;4.57;4.30;;;;;;;4.04;100.00;96898.66;5030497;28;20226;-70
2023/01/11 11:46:57;;;;;;;4.77;4.30;;;;;;;3.75;100.00;96889.19;5044099;28;20317;-71
2023/01/11 11:49:27;;;;;;;4.37;4.10;;;;;;;3.67;100.00;96881.25;5047734;28;20229;-70
2023/01/11 11:51:55;;;;;;;4.53;4.23;;;;;;;3.81;100.00;96886.94;5045092;28;20245;-71
2023/01/11 11:54:26;;;;;;;4.90;4.60;;;;;;;3.73;100.00;96872.78;5043927;28;20223;-70
2023/01/11 11:56:55;;;;;;;4.60;4.30;;;;;;;3.65;100.00;96869.25;5039147;28;20294;-73
2023/01/11 11:59:24;;;;;;;5.10;4.70;;;;;;;3.64;100.00;96867.59;5005488;28;20237;-70
2023/01/11 12:01:57;;;;;;;5.27;4.77;;;;;;;3.59;100.00;96868.88;5038266;28;20203;-72
2023/01/11 12:04:32;;;;;;;5.83;5.37;;;;;;;3.66;100.00;96865.66;4995730;28;20692;-71
2023/01/11 12:07:05;;;;;;;5.43;4.93;;;;;;;3.62;100.00;96860.72;5040775;28;20210;-71
2023/01/11 12:09:34;;;;;;;5.20;4.90;;;;;;;3.62;100.00;96863.34;5034387;28;20348;-71